Belem de Sao Francisco, Brazil
Current Conditions -  °F | °C
As of 10:00 AM on Wednesday 22 Oct 2014 (Local Time) from SBUF Reporting Station
Broken Clouds Broken Clouds  
Wind Chill: 88°   Ceiling: 2000
Heat Index: 89°   Visibility: 6mi
Dew Point: 64°   Wind: 12mph
Humidity: 46%   Direction: 110°ESE
Pressure: 30.03"   Gusts: NA
Location:  8.75°S, 38.97°W
Report Text: SBUF 221300Z 11010KT 9999 BKN020 31/18 Q1017
Loading
Personal Weather Stations






























Interactive Weather Map
Tropical Storm Tracking
New forecast layout! Learn more

10-Day Weather Forecast

Advertisements
Track Severe Weather on mobile